Robertsdale, Alabama
Current Conditions -  °F | °C
As of 9:15 AM on Wednesday 26 Nov 2014 (Local Time) from KCQF Reporting Station
Clear Clear  
Wind Chill: 10°   Ceiling: Unl
Heat Index: 10°   Visibility: 10mi
Dew Point: -3°   Wind: 6mph
Humidity: 40%   Direction: 330°NNW
Pressure: 30.27"   Gusts: NA
Location:  30.55°N, 87.71°W
Report Text: KCQF 261515Z AUTO 33005KT 10SM CLR 10/M03 A3027 RMK AO2
Loading
Personal Weather Stations






























Interactive Weather Map New forecast layout! Learn more

10-Day Weather Forecast

Advertisements
Track Severe Weather on mobile